Terminal Aerodrome Forecast
Issued by NWS

Home | Current Version | Previous Version | Text Only | Print | Product List | Glossary On
Versions: 1 2 3 4 5 6 7 8 9 10 11 12 13 14 15 16
000
FTUS44 KCRP 011700
TAFALI
TAF
KALI 011729Z 0118/0218 14014G22KT P6SM FEW025 SCT050 SCT250
     FM020100 15010KT P6SM FEW020
     FM020800 14005KT P6SM BKN012
     FM021500 15010G18KT P6SM SCT025=

USA.gov is the U.S. government's official web portal to all federal, state and local government web resources and services.